sensor_id;sensor_type;location;lat;lon;timestamp;P1;durP1;ratioP1;P2;durP2;ratioP2
6626;SDS011;3349;49.830;8.748;2024-01-30T00:00:23;21.17;;;14.07;;
6626;SDS011;3349;49.830;8.748;2024-01-30T00:02:50;22.87;;;14.60;;
6626;SDS011;3349;49.830;8.748;2024-01-30T00:05:18;22.63;;;14.40;;
6626;SDS011;3349;49.830;8.748;2024-01-30T00:07:43;21.50;;;14.67;;
6626;SDS011;3349;49.830;8.748;2024-01-30T00:10:10;20.63;;;13.93;;
6626;SDS011;3349;49.830;8.748;2024-01-30T00:12:37;23.90;;;14.77;;
6626;SDS011;3349;49.830;8.748;2024-01-30T00:15:04;26.20;;;15.27;;
6626;SDS011;3349;49.830;8.748;2024-01-30T00:17:33;23.47;;;14.53;;
6626;SDS011;3349;49.830;8.748;2024-01-30T00:20:00;21.50;;;15.37;;
6626;SDS011;3349;49.830;8.748;2024-01-30T00:22:31;20.83;;;13.93;;
6626;SDS011;3349;49.830;8.748;2024-01-30T00:24:58;23.00;;;14.93;;
6626;SDS011;3349;49.830;8.748;2024-01-30T00:27:25;23.20;;;14.43;;
6626;SDS011;3349;49.830;8.748;2024-01-30T00:29:52;23.60;;;14.97;;
6626;SDS011;3349;49.830;8.748;2024-01-30T00:32:18;23.87;;;14.20;;
6626;SDS011;3349;49.830;8.748;2024-01-30T00:34:45;25.20;;;15.87;;
6626;SDS011;3349;49.830;8.748;2024-01-30T00:37:12;24.53;;;15.53;;
6626;SDS011;3349;49.830;8.748;2024-01-30T00:39:40;22.83;;;15.93;;
6626;SDS011;3349;49.830;8.748;2024-01-30T00:42:06;22.70;;;15.83;;
6626;SDS011;3349;49.830;8.748;2024-01-30T00:44:34;27.77;;;16.60;;
6626;SDS011;3349;49.830;8.748;2024-01-30T00:47:02;35.50;;;20.73;;
6626;SDS011;3349;49.830;8.748;2024-01-30T00:49:29;30.50;;;19.27;;
6626;SDS011;3349;49.830;8.748;2024-01-30T00:51:55;34.10;;;21.13;;
6626;SDS011;3349;49.830;8.748;2024-01-30T00:54:22;44.40;;;23.73;;
6626;SDS011;3349;49.830;8.748;2024-01-30T00:56:50;35.47;;;21.27;;
6626;SDS011;3349;49.830;8.748;2024-01-30T00:59:17;38.47;;;22.13;;
6626;SDS011;3349;49.830;8.748;2024-01-30T01:01:43;35.00;;;20.27;;
6626;SDS011;3349;49.830;8.748;2024-01-30T01:04:10;35.90;;;21.23;;
6626;SDS011;3349;49.830;8.748;2024-01-30T01:06:36;33.67;;;20.37;;
6626;SDS011;3349;49.830;8.748;2024-01-30T01:09:03;30.70;;;19.37;;
6626;SDS011;3349;49.830;8.748;2024-01-30T01:11:30;29.47;;;18.93;;
6626;SDS011;3349;49.830;8.748;2024-01-30T01:13:58;26.83;;;17.67;;
6626;SDS011;3349;49.830;8.748;2024-01-30T01:16:25;29.90;;;16.77;;
6626;SDS011;3349;49.830;8.748;2024-01-30T01:18:51;21.40;;;13.90;;
6626;SDS011;3349;49.830;8.748;2024-01-30T01:21:18;21.53;;;12.63;;
6626;SDS011;3349;49.830;8.748;2024-01-30T01:23:45;17.43;;;11.20;;
6626;SDS011;3349;49.830;8.748;2024-01-30T01:26:11;18.47;;;11.30;;
6626;SDS011;3349;49.830;8.748;2024-01-30T01:28:39;15.70;;;11.23;;
6626;SDS011;3349;49.830;8.748;2024-01-30T01:31:08;16.80;;;11.43;;
6626;SDS011;3349;49.830;8.748;2024-01-30T01:33:34;20.43;;;11.77;;
6626;SDS011;3349;49.830;8.748;2024-01-30T01:36:02;20.57;;;14.70;;
6626;SDS011;3349;49.830;8.748;2024-01-30T01:38:30;21.13;;;15.30;;
6626;SDS011;3349;49.830;8.748;2024-01-30T01:40:56;19.90;;;15.13;;
6626;SDS011;3349;49.830;8.748;2024-01-30T01:43:23;21.00;;;14.03;;
6626;SDS011;3349;49.830;8.748;2024-01-30T01:45:50;21.37;;;13.97;;
6626;SDS011;3349;49.830;8.748;2024-01-30T01:48:18;19.37;;;13.17;;
6626;SDS011;3349;49.830;8.748;2024-01-30T01:50:45;23.07;;;13.87;;
6626;SDS011;3349;49.830;8.748;2024-01-30T01:53:11;21.83;;;12.63;;
6626;SDS011;3349;49.830;8.748;2024-01-30T01:55:38;19.23;;;12.07;;
6626;SDS011;3349;49.830;8.748;2024-01-30T01:58:05;18.17;;;11.20;;
6626;SDS011;3349;49.830;8.748;2024-01-30T02:00:33;16.60;;;11.27;;
6626;SDS011;3349;49.830;8.748;2024-01-30T02:03:04;15.93;;;10.57;;
6626;SDS011;3349;49.830;8.748;2024-01-30T02:05:34;17.70;;;10.63;;
6626;SDS011;3349;49.830;8.748;2024-01-30T02:08:01;15.37;;;9.93;;
6626;SDS011;3349;49.830;8.748;2024-01-30T02:10:28;15.03;;;9.50;;
6626;SDS011;3349;49.830;8.748;2024-01-30T02:12:54;17.93;;;9.90;;
6626;SDS011;3349;49.830;8.748;2024-01-30T02:15:21;15.03;;;9.63;;
6626;SDS011;3349;49.830;8.748;2024-01-30T02:17:48;17.83;;;10.53;;
6626;SDS011;3349;49.830;8.748;2024-01-30T02:20:14;15.73;;;10.07;;
6626;SDS011;3349;49.830;8.748;2024-01-30T02:22:43;18.00;;;10.83;;
6626;SDS011;3349;49.830;8.748;2024-01-30T02:25:09;17.10;;;11.03;;
6626;SDS011;3349;49.830;8.748;2024-01-30T02:27:36;17.70;;;11.27;;
6626;SDS011;3349;49.830;8.748;2024-01-30T02:30:03;17.57;;;11.00;;
6626;SDS011;3349;49.830;8.748;2024-01-30T02:32:31;20.00;;;11.50;;
6626;SDS011;3349;49.830;8.748;2024-01-30T02:34:57;14.67;;;9.93;;
6626;SDS011;3349;49.830;8.748;2024-01-30T02:37:24;19.43;;;11.47;;
6626;SDS011;3349;49.830;8.748;2024-01-30T02:39:52;18.10;;;11.03;;
6626;SDS011;3349;49.830;8.748;2024-01-30T02:42:19;17.37;;;11.40;;
6626;SDS011;3349;49.830;8.748;2024-01-30T02:44:45;18.07;;;11.53;;
6626;SDS011;3349;49.830;8.748;2024-01-30T02:47:12;18.63;;;11.17;;
6626;SDS011;3349;49.830;8.748;2024-01-30T02:49:39;14.43;;;10.27;;
6626;SDS011;3349;49.830;8.748;2024-01-30T02:52:06;17.67;;;11.33;;
6626;SDS011;3349;49.830;8.748;2024-01-30T02:54:32;16.20;;;10.77;;
6626;SDS011;3349;49.830;8.748;2024-01-30T02:57:00;16.90;;;11.00;;
6626;SDS011;3349;49.830;8.748;2024-01-30T02:59:27;15.00;;;10.77;;
6626;SDS011;3349;49.830;8.748;2024-01-30T03:01:54;14.57;;;9.80;;
6626;SDS011;3349;49.830;8.748;2024-01-30T03:04:20;13.17;;;9.17;;
6626;SDS011;3349;49.830;8.748;2024-01-30T03:06:47;18.57;;;10.00;;
6626;SDS011;3349;49.830;8.748;2024-01-30T03:09:16;16.37;;;9.50;;
6626;SDS011;3349;49.830;8.748;2024-01-30T03:11:43;12.73;;;8.97;;
6626;SDS011;3349;49.830;8.748;2024-01-30T03:14:11;14.73;;;8.83;;
6626;SDS011;3349;49.830;8.748;2024-01-30T03:16:38;15.50;;;9.10;;
6626;SDS011;3349;49.830;8.748;2024-01-30T03:19:05;12.93;;;9.47;;
6626;SDS011;3349;49.830;8.748;2024-01-30T03:21:34;16.70;;;9.70;;
6626;SDS011;3349;49.830;8.748;2024-01-30T03:24:01;15.00;;;10.13;;
6626;SDS011;3349;49.830;8.748;2024-01-30T03:26:27;13.27;;;9.70;;
6626;SDS011;3349;49.830;8.748;2024-01-30T03:28:54;13.67;;;9.27;;
6626;SDS011;3349;49.830;8.748;2024-01-30T03:31:22;13.33;;;9.40;;
6626;SDS011;3349;49.830;8.748;2024-01-30T03:33:49;12.47;;;8.07;;
6626;SDS011;3349;49.830;8.748;2024-01-30T03:36:15;12.53;;;8.37;;
6626;SDS011;3349;49.830;8.748;2024-01-30T03:38:42;13.33;;;8.63;;
6626;SDS011;3349;49.830;8.748;2024-01-30T03:41:09;14.40;;;8.60;;
6626;SDS011;3349;49.830;8.748;2024-01-30T03:43:36;12.97;;;7.53;;
6626;SDS011;3349;49.830;8.748;2024-01-30T03:46:03;10.00;;;7.87;;
6626;SDS011;3349;49.830;8.748;2024-01-30T03:48:31;11.93;;;8.17;;
6626;SDS011;3349;49.830;8.748;2024-01-30T03:50:58;14.50;;;8.23;;
6626;SDS011;3349;49.830;8.748;2024-01-30T03:53:24;11.67;;;8.20;;
6626;SDS011;3349;49.830;8.748;2024-01-30T03:55:51;11.80;;;7.73;;
6626;SDS011;3349;49.830;8.748;2024-01-30T03:58:18;13.23;;;8.47;;
6626;SDS011;3349;49.830;8.748;2024-01-30T04:00:44;12.63;;;8.27;;
6626;SDS011;3349;49.830;8.748;2024-01-30T04:03:11;10.87;;;7.47;;
6626;SDS011;3349;49.830;8.748;2024-01-30T04:05:39;11.93;;;8.20;;
6626;SDS011;3349;49.830;8.748;2024-01-30T04:08:06;13.07;;;8.67;;
6626;SDS011;3349;49.830;8.748;2024-01-30T04:10:33;15.93;;;9.17;;
6626;SDS011;3349;49.830;8.748;2024-01-30T04:13:00;12.20;;;8.30;;
6626;SDS011;3349;49.830;8.748;2024-01-30T04:15:27;15.30;;;8.80;;
6626;SDS011;3349;49.830;8.748;2024-01-30T04:17:56;13.37;;;8.83;;
6626;SDS011;3349;49.830;8.748;2024-01-30T04:20:23;13.37;;;7.87;;
6626;SDS011;3349;49.830;8.748;2024-01-30T04:22:51;12.80;;;7.87;;
6626;SDS011;3349;49.830;8.748;2024-01-30T04:25:18;13.23;;;8.13;;
6626;SDS011;3349;49.830;8.748;2024-01-30T04:27:45;13.00;;;8.63;;
6626;SDS011;3349;49.830;8.748;2024-01-30T04:30:12;13.13;;;8.53;;
6626;SDS011;3349;49.830;8.748;2024-01-30T04:32:39;12.70;;;8.80;;
6626;SDS011;3349;49.830;8.748;2024-01-30T04:35:06;13.63;;;9.47;;
6626;SDS011;3349;49.830;8.748;2024-01-30T04:37:33;14.07;;;10.20;;
6626;SDS011;3349;49.830;8.748;2024-01-30T04:40:01;18.83;;;11.67;;
6626;SDS011;3349;49.830;8.748;2024-01-30T04:42:28;18.57;;;11.20;;
6626;SDS011;3349;49.830;8.748;2024-01-30T04:44:54;14.20;;;10.87;;
6626;SDS011;3349;49.830;8.748;2024-01-30T04:47:21;15.60;;;11.43;;
6626;SDS011;3349;49.830;8.748;2024-01-30T04:49:48;18.53;;;11.87;;
6626;SDS011;3349;49.830;8.748;2024-01-30T04:52:15;17.60;;;12.73;;
6626;SDS011;3349;49.830;8.748;2024-01-30T04:54:42;23.73;;;15.47;;
6626;SDS011;3349;49.830;8.748;2024-01-30T04:57:10;27.07;;;16.23;;
6626;SDS011;3349;49.830;8.748;2024-01-30T04:59:37;29.00;;;17.20;;
6626;SDS011;3349;49.830;8.748;2024-01-30T05:02:04;28.97;;;17.57;;
6626;SDS011;3349;49.830;8.748;2024-01-30T05:04:30;29.03;;;17.37;;
6626;SDS011;3349;49.830;8.748;2024-01-30T05:06:57;31.03;;;16.40;;
6626;SDS011;3349;49.830;8.748;2024-01-30T05:09:24;33.90;;;16.53;;
6626;SDS011;3349;49.830;8.748;2024-01-30T05:11:51;29.87;;;16.07;;
6626;SDS011;3349;49.830;8.748;2024-01-30T05:14:19;29.20;;;16.53;;
6626;SDS011;3349;49.830;8.748;2024-01-30T05:16:45;33.20;;;16.43;;
6626;SDS011;3349;49.830;8.748;2024-01-30T05:19:12;34.63;;;16.90;;
6626;SDS011;3349;49.830;8.748;2024-01-30T05:21:40;28.07;;;15.57;;
6626;SDS011;3349;49.830;8.748;2024-01-30T05:24:07;27.57;;;15.97;;
6626;SDS011;3349;49.830;8.748;2024-01-30T05:26:35;33.33;;;15.87;;
6626;SDS011;3349;49.830;8.748;2024-01-30T05:29:02;25.47;;;14.83;;
6626;SDS011;3349;49.830;8.748;2024-01-30T05:31:30;32.57;;;16.43;;
6626;SDS011;3349;49.830;8.748;2024-01-30T05:33:56;26.47;;;14.17;;
6626;SDS011;3349;49.830;8.748;2024-01-30T05:36:23;27.43;;;12.67;;
6626;SDS011;3349;49.830;8.748;2024-01-30T05:38:50;31.07;;;15.33;;
6626;SDS011;3349;49.830;8.748;2024-01-30T05:41:17;46.47;;;19.03;;
6626;SDS011;3349;49.830;8.748;2024-01-30T05:43:43;40.37;;;18.97;;
6626;SDS011;3349;49.830;8.748;2024-01-30T05:46:10;37.60;;;19.10;;
6626;SDS011;3349;49.830;8.748;2024-01-30T05:48:38;38.40;;;19.73;;
6626;SDS011;3349;49.830;8.748;2024-01-30T05:51:06;35.73;;;18.77;;
6626;SDS011;3349;49.830;8.748;2024-01-30T05:53:33;40.37;;;18.67;;
6626;SDS011;3349;49.830;8.748;2024-01-30T05:56:01;36.53;;;19.23;;
6626;SDS011;3349;49.830;8.748;2024-01-30T05:58:28;31.23;;;17.60;;
6626;SDS011;3349;49.830;8.748;2024-01-30T06:00:56;28.27;;;15.73;;
6626;SDS011;3349;49.830;8.748;2024-01-30T06:03:22;29.73;;;15.40;;
6626;SDS011;3349;49.830;8.748;2024-01-30T06:05:50;28.53;;;15.17;;
6626;SDS011;3349;49.830;8.748;2024-01-30T06:08:17;31.00;;;15.40;;
6626;SDS011;3349;49.830;8.748;2024-01-30T06:10:44;25.90;;;13.13;;
6626;SDS011;3349;49.830;8.748;2024-01-30T06:13:11;19.17;;;11.07;;
6626;SDS011;3349;49.830;8.748;2024-01-30T06:15:37;21.37;;;11.07;;
6626;SDS011;3349;49.830;8.748;2024-01-30T06:18:04;20.43;;;10.80;;
6626;SDS011;3349;49.830;8.748;2024-01-30T06:20:31;21.03;;;11.30;;
6626;SDS011;3349;49.830;8.748;2024-01-30T06:22:59;25.90;;;13.40;;
6626;SDS011;3349;49.830;8.748;2024-01-30T06:25:25;25.63;;;13.77;;
6626;SDS011;3349;49.830;8.748;2024-01-30T06:27:52;25.33;;;14.97;;
6626;SDS011;3349;49.830;8.748;2024-01-30T06:30:19;25.80;;;15.23;;
6626;SDS011;3349;49.830;8.748;2024-01-30T06:32:45;27.97;;;15.43;;
6626;SDS011;3349;49.830;8.748;2024-01-30T06:35:12;31.67;;;17.47;;
6626;SDS011;3349;49.830;8.748;2024-01-30T06:37:39;29.73;;;18.27;;
6626;SDS011;3349;49.830;8.748;2024-01-30T06:40:07;36.30;;;19.43;;
6626;SDS011;3349;49.830;8.748;2024-01-30T06:42:35;49.47;;;22.23;;
6626;SDS011;3349;49.830;8.748;2024-01-30T06:45:01;55.57;;;27.13;;
6626;SDS011;3349;49.830;8.748;2024-01-30T06:47:28;44.00;;;24.30;;
6626;SDS011;3349;49.830;8.748;2024-01-30T06:49:56;35.03;;;19.60;;
6626;SDS011;3349;49.830;8.748;2024-01-30T06:52:22;34.33;;;19.37;;
6626;SDS011;3349;49.830;8.748;2024-01-30T06:54:49;38.07;;;20.63;;
6626;SDS011;3349;49.830;8.748;2024-01-30T06:57:17;39.33;;;21.47;;
6626;SDS011;3349;49.830;8.748;2024-01-30T06:59:44;36.70;;;19.43;;
6626;SDS011;3349;49.830;8.748;2024-01-30T07:02:10;42.63;;;20.83;;
6626;SDS011;3349;49.830;8.748;2024-01-30T07:04:37;43.40;;;21.73;;
6626;SDS011;3349;49.830;8.748;2024-01-30T07:07:04;38.73;;;21.90;;
6626;SDS011;3349;49.830;8.748;2024-01-30T07:09:36;42.73;;;21.80;;
6626;SDS011;3349;49.830;8.748;2024-01-30T07:12:03;49.93;;;24.60;;
6626;SDS011;3349;49.830;8.748;2024-01-30T07:14:32;50.33;;;23.67;;
6626;SDS011;3349;49.830;8.748;2024-01-30T07:16:59;50.97;;;24.60;;
6626;SDS011;3349;49.830;8.748;2024-01-30T07:19:25;46.53;;;23.10;;
6626;SDS011;3349;49.830;8.748;2024-01-30T07:21:52;37.67;;;20.53;;
6626;SDS011;3349;49.830;8.748;2024-01-30T07:24:19;44.20;;;23.57;;
6626;SDS011;3349;49.830;8.748;2024-01-30T07:26:45;43.13;;;22.67;;
6626;SDS011;3349;49.830;8.748;2024-01-30T07:29:12;42.87;;;22.53;;
6626;SDS011;3349;49.830;8.748;2024-01-30T07:31:40;43.80;;;22.60;;
6626;SDS011;3349;49.830;8.748;2024-01-30T07:34:06;49.97;;;24.23;;
6626;SDS011;3349;49.830;8.748;2024-01-30T07:36:33;46.37;;;22.80;;
6626;SDS011;3349;49.830;8.748;2024-01-30T07:39:00;49.67;;;23.67;;
6626;SDS011;3349;49.830;8.748;2024-01-30T07:41:26;41.50;;;23.70;;
6626;SDS011;3349;49.830;8.748;2024-01-30T07:43:53;49.03;;;25.57;;
6626;SDS011;3349;49.830;8.748;2024-01-30T07:46:20;43.33;;;24.57;;
6626;SDS011;3349;49.830;8.748;2024-01-30T07:48:48;52.53;;;25.57;;
6626;SDS011;3349;49.830;8.748;2024-01-30T07:51:14;66.30;;;26.80;;
6626;SDS011;3349;49.830;8.748;2024-01-30T07:53:41;73.00;;;28.67;;
6626;SDS011;3349;49.830;8.748;2024-01-30T08:02:52;67.27;;;27.60;;
6626;SDS011;3349;49.830;8.748;2024-01-30T08:05:20;62.60;;;28.87;;
6626;SDS011;3349;49.830;8.748;2024-01-30T08:07:48;53.50;;;25.57;;
6626;SDS011;3349;49.830;8.748;2024-01-30T08:10:15;64.80;;;26.23;;
6626;SDS011;3349;49.830;8.748;2024-01-30T08:12:43;60.50;;;27.58;;
6626;SDS011;3349;49.830;8.748;2024-01-30T08:15:10;55.85;;;26.73;;
6626;SDS011;3349;49.830;8.748;2024-01-30T08:17:38;57.47;;;26.20;;
6626;SDS011;3349;49.830;8.748;2024-01-30T08:20:05;61.67;;;25.77;;
6626;SDS011;3349;49.830;8.748;2024-01-30T08:22:34;42.88;;;23.17;;
6626;SDS011;3349;49.830;8.748;2024-01-30T08:25:01;47.50;;;21.77;;
6626;SDS011;3349;49.830;8.748;2024-01-30T08:27:28;49.25;;;22.83;;
6626;SDS011;3349;49.830;8.748;2024-01-30T08:29:54;42.17;;;22.75;;
6626;SDS011;3349;49.830;8.748;2024-01-30T08:32:21;43.85;;;22.60;;
6626;SDS011;3349;49.830;8.748;2024-01-30T08:34:48;47.53;;;24.42;;
6626;SDS011;3349;49.830;8.748;2024-01-30T08:37:15;50.22;;;23.92;;
6626;SDS011;3349;49.830;8.748;2024-01-30T08:39:44;54.08;;;24.13;;
6626;SDS011;3349;49.830;8.748;2024-01-30T08:42:10;53.50;;;27.83;;
6626;SDS011;3349;49.830;8.748;2024-01-30T08:44:37;57.03;;;28.98;;
6626;SDS011;3349;49.830;8.748;2024-01-30T08:47:04;54.85;;;29.40;;
6626;SDS011;3349;49.830;8.748;2024-01-30T08:49:31;57.25;;;33.35;;
6626;SDS011;3349;49.830;8.748;2024-01-30T08:51:58;48.95;;;31.05;;
6626;SDS011;3349;49.830;8.748;2024-01-30T08:54:24;44.55;;;29.98;;
6626;SDS011;3349;49.830;8.748;2024-01-30T08:56:52;50.00;;;29.90;;
6626;SDS011;3349;49.830;8.748;2024-01-30T08:59:21;42.58;;;27.30;;
6626;SDS011;3349;49.830;8.748;2024-01-30T09:01:47;34.08;;;24.17;;
6626;SDS011;3349;49.830;8.748;2024-01-30T09:04:18;35.60;;;23.02;;
6626;SDS011;3349;49.830;8.748;2024-01-30T09:06:45;32.78;;;21.58;;
6626;SDS011;3349;49.830;8.748;2024-01-30T09:09:11;31.67;;;20.75;;
6626;SDS011;3349;49.830;8.748;2024-01-30T09:11:39;28.55;;;19.20;;
6626;SDS011;3349;49.830;8.748;2024-01-30T09:14:07;23.25;;;18.58;;
6626;SDS011;3349;49.830;8.748;2024-01-30T09:16:34;27.88;;;18.08;;
6626;SDS011;3349;49.830;8.748;2024-01-30T09:19:01;22.60;;;16.75;;
6626;SDS011;3349;49.830;8.748;2024-01-30T09:21:28;25.10;;;17.25;;
6626;SDS011;3349;49.830;8.748;2024-01-30T09:23:55;22.00;;;16.63;;
6626;SDS011;3349;49.830;8.748;2024-01-30T09:26:28;24.52;;;16.55;;
6626;SDS011;3349;49.830;8.748;2024-01-30T09:28:54;26.58;;;17.73;;
6626;SDS011;3349;49.830;8.748;2024-01-30T09:31:22;27.83;;;16.70;;
6626;SDS011;3349;49.830;8.748;2024-01-30T09:33:49;23.23;;;17.60;;
6626;SDS011;3349;49.830;8.748;2024-01-30T09:36:18;31.52;;;19.38;;
6626;SDS011;3349;49.830;8.748;2024-01-30T09:38:45;30.75;;;19.65;;
6626;SDS011;3349;49.830;8.748;2024-01-30T09:41:12;28.98;;;18.90;;
6626;SDS011;3349;49.830;8.748;2024-01-30T09:43:39;38.22;;;19.90;;
6626;SDS011;3349;49.830;8.748;2024-01-30T09:46:06;33.33;;;19.80;;
6626;SDS011;3349;49.830;8.748;2024-01-30T09:48:39;30.17;;;18.45;;
6626;SDS011;3349;49.830;8.748;2024-01-30T09:51:07;37.05;;;19.42;;
6626;SDS011;3349;49.830;8.748;2024-01-30T09:53:35;27.77;;;19.77;;
6626;SDS011;3349;49.830;8.748;2024-01-30T09:56:02;31.80;;;19.10;;
6626;SDS011;3349;49.830;8.748;2024-01-30T09:58:30;29.98;;;18.92;;
6626;SDS011;3349;49.830;8.748;2024-01-30T10:00:56;40.92;;;19.75;;
6626;SDS011;3349;49.830;8.748;2024-01-30T10:03:23;30.20;;;17.65;;
6626;SDS011;3349;49.830;8.748;2024-01-30T10:05:51;26.17;;;16.92;;
6626;SDS011;3349;49.830;8.748;2024-01-30T10:08:18;23.05;;;16.38;;
6626;SDS011;3349;49.830;8.748;2024-01-30T10:10:45;27.00;;;16.90;;
6626;SDS011;3349;49.830;8.748;2024-01-30T10:13:12;29.48;;;17.30;;
6626;SDS011;3349;49.830;8.748;2024-01-30T10:15:39;30.08;;;17.00;;
6626;SDS011;3349;49.830;8.748;2024-01-30T10:18:06;24.00;;;15.90;;
6626;SDS011;3349;49.830;8.748;2024-01-30T10:20:32;25.23;;;15.57;;
6626;SDS011;3349;49.830;8.748;2024-01-30T10:23:01;21.13;;;14.20;;
6626;SDS011;3349;49.830;8.748;2024-01-30T10:25:28;19.08;;;13.77;;
6626;SDS011;3349;49.830;8.748;2024-01-30T10:27:56;17.70;;;13.25;;
6626;SDS011;3349;49.830;8.748;2024-01-30T10:30:23;16.05;;;10.85;;
6626;SDS011;3349;49.830;8.748;2024-01-30T10:32:50;17.42;;;11.88;;
6626;SDS011;3349;49.830;8.748;2024-01-30T10:35:17;15.35;;;10.60;;
6626;SDS011;3349;49.830;8.748;2024-01-30T10:37:44;14.52;;;9.45;;
6626;SDS011;3349;49.830;8.748;2024-01-30T10:40:15;12.52;;;9.05;;
6626;SDS011;3349;49.830;8.748;2024-01-30T10:42:42;12.77;;;8.75;;
6626;SDS011;3349;49.830;8.748;2024-01-30T10:45:10;11.77;;;8.57;;
6626;SDS011;3349;49.830;8.748;2024-01-30T10:47:39;12.35;;;9.05;;
6626;SDS011;3349;49.830;8.748;2024-01-30T10:50:07;22.73;;;9.70;;
6626;SDS011;3349;49.830;8.748;2024-01-30T10:52:35;11.23;;;9.10;;
6626;SDS011;3349;49.830;8.748;2024-01-30T10:55:04;10.85;;;8.63;;
6626;SDS011;3349;49.830;8.748;2024-01-30T10:57:34;22.10;;;8.80;;
6626;SDS011;3349;49.830;8.748;2024-01-30T11:00:01;12.38;;;8.77;;
6626;SDS011;3349;49.830;8.748;2024-01-30T11:02:35;12.25;;;8.07;;
6626;SDS011;3349;49.830;8.748;2024-01-30T11:05:04;19.00;;;8.32;;
6626;SDS011;3349;49.830;8.748;2024-01-30T11:07:31;12.25;;;8.93;;
6626;SDS011;3349;49.830;8.748;2024-01-30T11:09:59;14.45;;;9.32;;
6626;SDS011;3349;49.830;8.748;2024-01-30T11:12:27;18.08;;;8.98;;
6626;SDS011;3349;49.830;8.748;2024-01-30T11:15:02;11.60;;;9.02;;
6626;SDS011;3349;49.830;8.748;2024-01-30T11:17:39;9.95;;;8.00;;
6626;SDS011;3349;49.830;8.748;2024-01-30T11:20:09;13.68;;;9.93;;
6626;SDS011;3349;49.830;8.748;2024-01-30T11:22:36;13.98;;;9.82;;
6626;SDS011;3349;49.830;8.748;2024-01-30T11:25:03;9.68;;;7.28;;
6626;SDS011;3349;49.830;8.748;2024-01-30T11:27:30;11.35;;;7.38;;
6626;SDS011;3349;49.830;8.748;2024-01-30T11:30:00;7.47;;;6.15;;
6626;SDS011;3349;49.830;8.748;2024-01-30T11:32:29;6.65;;;5.93;;
6626;SDS011;3349;49.830;8.748;2024-01-30T11:34:56;10.20;;;6.70;;
6626;SDS011;3349;49.830;8.748;2024-01-30T11:37:24;13.43;;;8.77;;
6626;SDS011;3349;49.830;8.748;2024-01-30T11:39:52;12.02;;;9.20;;
6626;SDS011;3349;49.830;8.748;2024-01-30T11:42:19;10.40;;;8.63;;
6626;SDS011;3349;49.830;8.748;2024-01-30T11:44:49;11.15;;;9.25;;
6626;SDS011;3349;49.830;8.748;2024-01-30T11:47:18;15.57;;;9.95;;
6626;SDS011;3349;49.830;8.748;2024-01-30T11:49:44;12.30;;;9.05;;
6626;SDS011;3349;49.830;8.748;2024-01-30T11:52:11;10.43;;;9.27;;
6626;SDS011;3349;49.830;8.748;2024-01-30T11:54:39;10.93;;;9.20;;
6626;SDS011;3349;49.830;8.748;2024-01-30T11:57:06;10.48;;;9.38;;
6626;SDS011;3349;49.830;8.748;2024-01-30T11:59:33;10.60;;;8.60;;
6626;SDS011;3349;49.830;8.748;2024-01-30T12:01:59;11.90;;;9.25;;
6626;SDS011;3349;49.830;8.748;2024-01-30T12:04:29;10.95;;;8.52;;
6626;SDS011;3349;49.830;8.748;2024-01-30T12:06:56;10.90;;;8.27;;
6626;SDS011;3349;49.830;8.748;2024-01-30T12:09:22;12.38;;;10.52;;
6626;SDS011;3349;49.830;8.748;2024-01-30T12:11:49;13.23;;;10.70;;
6626;SDS011;3349;49.830;8.748;2024-01-30T12:14:16;11.88;;;8.30;;
6626;SDS011;3349;49.830;8.748;2024-01-30T12:16:47;27.25;;;16.70;;
6626;SDS011;3349;49.830;8.748;2024-01-30T12:19:20;9.38;;;6.40;;
6626;SDS011;3349;49.830;8.748;2024-01-30T12:21:53;21.80;;;12.27;;
6626;SDS011;3349;49.830;8.748;2024-01-30T12:24:20;26.13;;;12.55;;
6626;SDS011;3349;49.830;8.748;2024-01-30T12:26:47;15.50;;;8.70;;
6626;SDS011;3349;49.830;8.748;2024-01-30T12:29:14;15.02;;;9.48;;
6626;SDS011;3349;49.830;8.748;2024-01-30T12:31:41;15.55;;;9.65;;
6626;SDS011;3349;49.830;8.748;2024-01-30T12:34:08;11.18;;;7.72;;
6626;SDS011;3349;49.830;8.748;2024-01-30T12:36:35;13.45;;;8.50;;
6626;SDS011;3349;49.830;8.748;2024-01-30T12:39:03;12.77;;;8.82;;
6626;SDS011;3349;49.830;8.748;2024-01-30T12:41:30;13.85;;;8.77;;
6626;SDS011;3349;49.830;8.748;2024-01-30T12:43:57;10.73;;;7.90;;
6626;SDS011;3349;49.830;8.748;2024-01-30T12:46:25;11.13;;;7.18;;
6626;SDS011;3349;49.830;8.748;2024-01-30T12:48:54;9.70;;;8.23;;
6626;SDS011;3349;49.830;8.748;2024-01-30T12:51:21;10.07;;;7.60;;
6626;SDS011;3349;49.830;8.748;2024-01-30T12:53:48;10.82;;;8.07;;
6626;SDS011;3349;49.830;8.748;2024-01-30T12:56:16;10.65;;;7.25;;
6626;SDS011;3349;49.830;8.748;2024-01-30T12:58:42;9.75;;;7.15;;
6626;SDS011;3349;49.830;8.748;2024-01-30T13:01:09;9.00;;;7.47;;
6626;SDS011;3349;49.830;8.748;2024-01-30T13:03:36;8.43;;;7.20;;
6626;SDS011;3349;49.830;8.748;2024-01-30T13:06:03;11.73;;;8.27;;
6626;SDS011;3349;49.830;8.748;2024-01-30T13:08:30;9.98;;;7.03;;
6626;SDS011;3349;49.830;8.748;2024-01-30T13:10:56;16.42;;;9.25;;
6626;SDS011;3349;49.830;8.748;2024-01-30T13:13:24;23.95;;;15.23;;
6626;SDS011;3349;49.830;8.748;2024-01-30T13:15:51;19.38;;;10.75;;
6626;SDS011;3349;49.830;8.748;2024-01-30T13:18:18;9.40;;;7.15;;
6626;SDS011;3349;49.830;8.748;2024-01-30T13:20:44;21.40;;;13.13;;
6626;SDS011;3349;49.830;8.748;2024-01-30T13:23:11;100.35;;;41.17;;
6626;SDS011;3349;49.830;8.748;2024-01-30T13:25:37;71.00;;;31.60;;
6626;SDS011;3349;49.830;8.748;2024-01-30T13:28:04;11.15;;;7.97;;
6626;SDS011;3349;49.830;8.748;2024-01-30T13:30:32;11.00;;;8.00;;
6626;SDS011;3349;49.830;8.748;2024-01-30T13:32:59;7.28;;;6.18;;
6626;SDS011;3349;49.830;8.748;2024-01-30T13:35:26;7.55;;;5.95;;
6626;SDS011;3349;49.830;8.748;2024-01-30T13:37:52;10.25;;;7.03;;
6626;SDS011;3349;49.830;8.748;2024-01-30T13:40:19;8.90;;;6.20;;
6626;SDS011;3349;49.830;8.748;2024-01-30T13:42:47;7.40;;;6.25;;
6626;SDS011;3349;49.830;8.748;2024-01-30T13:45:14;8.57;;;6.25;;
6626;SDS011;3349;49.830;8.748;2024-01-30T13:47:42;8.35;;;6.18;;
6626;SDS011;3349;49.830;8.748;2024-01-30T13:50:08;8.65;;;6.20;;
6626;SDS011;3349;49.830;8.748;2024-01-30T13:52:40;8.98;;;6.55;;
6626;SDS011;3349;49.830;8.748;2024-01-30T13:55:06;9.20;;;6.25;;
6626;SDS011;3349;49.830;8.748;2024-01-30T13:57:34;8.40;;;6.13;;
6626;SDS011;3349;49.830;8.748;2024-01-30T14:00:01;11.05;;;7.15;;
6626;SDS011;3349;49.830;8.748;2024-01-30T14:02:30;7.72;;;6.45;;
6626;SDS011;3349;49.830;8.748;2024-01-30T14:04:58;12.82;;;7.10;;
6626;SDS011;3349;49.830;8.748;2024-01-30T14:07:25;10.57;;;6.82;;
6626;SDS011;3349;49.830;8.748;2024-01-30T14:09:51;14.60;;;7.72;;
6626;SDS011;3349;49.830;8.748;2024-01-30T14:12:18;13.90;;;8.88;;
6626;SDS011;3349;49.830;8.748;2024-01-30T14:14:45;12.00;;;8.30;;
6626;SDS011;3349;49.830;8.748;2024-01-30T14:17:11;13.90;;;8.00;;
6626;SDS011;3349;49.830;8.748;2024-01-30T14:19:38;16.13;;;8.60;;
6626;SDS011;3349;49.830;8.748;2024-01-30T14:22:06;12.00;;;7.60;;
6626;SDS011;3349;49.830;8.748;2024-01-30T14:24:33;14.95;;;7.25;;
6626;SDS011;3349;49.830;8.748;2024-01-30T14:26:59;9.55;;;6.32;;
6626;SDS011;3349;49.830;8.748;2024-01-30T14:29:26;13.73;;;7.57;;
6626;SDS011;3349;49.830;8.748;2024-01-30T14:31:53;11.25;;;7.38;;
6626;SDS011;3349;49.830;8.748;2024-01-30T14:34:20;11.30;;;6.93;;
6626;SDS011;3349;49.830;8.748;2024-01-30T14:36:46;10.13;;;7.40;;
6626;SDS011;3349;49.830;8.748;2024-01-30T14:39:14;7.63;;;6.82;;
6626;SDS011;3349;49.830;8.748;2024-01-30T14:41:41;12.57;;;7.43;;
6626;SDS011;3349;49.830;8.748;2024-01-30T14:44:08;12.77;;;7.80;;
6626;SDS011;3349;49.830;8.748;2024-01-30T14:46:34;10.02;;;8.02;;
6626;SDS011;3349;49.830;8.748;2024-01-30T14:49:02;10.55;;;6.53;;
6626;SDS011;3349;49.830;8.748;2024-01-30T14:51:30;9.73;;;6.55;;
6626;SDS011;3349;49.830;8.748;2024-01-30T14:53:58;10.35;;;7.30;;
6626;SDS011;3349;49.830;8.748;2024-01-30T14:56:26;10.32;;;6.78;;
6626;SDS011;3349;49.830;8.748;2024-01-30T14:58:53;12.02;;;7.47;;